sensor_id;sensor_type;location;lat;lon;timestamp;P1;durP1;ratioP1;P2;durP2;ratioP2
59434;SDS011;45241;49.768;8.636;2023-08-24T06:14:30;8.02;;;6.47;;
59434;SDS011;45241;49.768;8.636;2023-08-24T06:17:21;7.13;;;6.38;;
59434;SDS011;45241;49.768;8.636;2023-08-24T06:19:46;7.80;;;7.00;;
59434;SDS011;45241;49.768;8.636;2023-08-24T06:22:11;7.85;;;6.60;;
59434;SDS011;45241;49.768;8.636;2023-08-24T06:24:36;7.05;;;6.35;;
59434;SDS011;45241;49.768;8.636;2023-08-24T06:27:02;7.72;;;6.13;;
59434;SDS011;45241;49.768;8.636;2023-08-24T06:29:28;10.35;;;6.28;;
59434;SDS011;45241;49.768;8.636;2023-08-24T06:31:54;8.45;;;6.10;;
59434;SDS011;45241;49.768;8.636;2023-08-24T06:34:20;8.20;;;6.40;;
59434;SDS011;45241;49.768;8.636;2023-08-24T06:36:45;8.38;;;6.22;;
59434;SDS011;45241;49.768;8.636;2023-08-24T06:39:12;9.15;;;6.07;;
59434;SDS011;45241;49.768;8.636;2023-08-24T06:41:37;8.57;;;5.38;;
59434;SDS011;45241;49.768;8.636;2023-08-24T06:44:02;7.97;;;6.00;;
59434;SDS011;45241;49.768;8.636;2023-08-24T06:46:29;7.03;;;5.95;;
59434;SDS011;45241;49.768;8.636;2023-08-24T06:48:54;8.00;;;5.88;;
59434;SDS011;45241;49.768;8.636;2023-08-24T06:51:20;11.73;;;6.40;;
59434;SDS011;45241;49.768;8.636;2023-08-24T06:53:45;7.43;;;6.45;;
59434;SDS011;45241;49.768;8.636;2023-08-24T06:56:13;7.40;;;5.50;;
59434;SDS011;45241;49.768;8.636;2023-08-24T06:58:39;7.70;;;5.63;;
59434;SDS011;45241;49.768;8.636;2023-08-24T07:01:05;7.07;;;5.97;;
59434;SDS011;45241;49.768;8.636;2023-08-24T07:03:31;6.00;;;5.40;;
59434;SDS011;45241;49.768;8.636;2023-08-24T07:05:58;7.47;;;6.38;;
59434;SDS011;45241;49.768;8.636;2023-08-24T07:08:23;7.15;;;5.63;;
59434;SDS011;45241;49.768;8.636;2023-08-24T07:10:49;7.95;;;4.82;;
59434;SDS011;45241;49.768;8.636;2023-08-24T07:13:14;5.45;;;4.40;;
59434;SDS011;45241;49.768;8.636;2023-08-24T07:15:39;5.53;;;3.60;;
59434;SDS011;45241;49.768;8.636;2023-08-24T07:18:05;5.43;;;3.63;;
59434;SDS011;45241;49.768;8.636;2023-08-24T07:20:34;6.35;;;3.97;;
59434;SDS011;45241;49.768;8.636;2023-08-24T07:23:02;6.68;;;3.55;;
59434;SDS011;45241;49.768;8.636;2023-08-24T07:25:28;5.85;;;3.65;;
59434;SDS011;45241;49.768;8.636;2023-08-24T07:27:53;6.68;;;3.42;;
59434;SDS011;45241;49.768;8.636;2023-08-24T07:30:26;3.45;;;3.15;;
59434;SDS011;45241;49.768;8.636;2023-08-24T07:32:52;4.75;;;3.28;;
59434;SDS011;45241;49.768;8.636;2023-08-24T07:35:18;4.00;;;3.33;;
59434;SDS011;45241;49.768;8.636;2023-08-24T07:39:54;3.72;;;3.13;;
59434;SDS011;45241;49.768;8.636;2023-08-24T07:42:19;3.97;;;3.10;;
59434;SDS011;45241;49.768;8.636;2023-08-24T07:44:46;4.85;;;3.10;;
59434;SDS011;45241;49.768;8.636;2023-08-24T07:47:11;6.00;;;2.78;;
59434;SDS011;45241;49.768;8.636;2023-08-24T07:49:37;3.13;;;2.80;;
59434;SDS011;45241;49.768;8.636;2023-08-24T07:52:08;3.67;;;2.75;;
59434;SDS011;45241;49.768;8.636;2023-08-24T07:54:33;4.32;;;2.83;;
59434;SDS011;45241;49.768;8.636;2023-08-24T07:56:58;5.82;;;3.00;;
59434;SDS011;45241;49.768;8.636;2023-08-24T07:59:24;5.20;;;2.70;;
59434;SDS011;45241;49.768;8.636;2023-08-24T08:01:49;3.50;;;3.20;;
59434;SDS011;45241;49.768;8.636;2023-08-24T08:04:15;4.78;;;3.30;;
59434;SDS011;45241;49.768;8.636;2023-08-24T08:06:40;5.53;;;3.40;;
59434;SDS011;45241;49.768;8.636;2023-08-24T08:09:05;6.22;;;2.80;;
59434;SDS011;45241;49.768;8.636;2023-08-24T08:11:31;4.93;;;2.65;;
59434;SDS011;45241;49.768;8.636;2023-08-24T08:13:56;5.45;;;3.00;;
59434;SDS011;45241;49.768;8.636;2023-08-24T08:16:21;6.78;;;3.20;;
59434;SDS011;45241;49.768;8.636;2023-08-24T08:18:47;4.15;;;2.97;;
59434;SDS011;45241;49.768;8.636;2023-08-24T08:21:16;4.13;;;2.65;;
59434;SDS011;45241;49.768;8.636;2023-08-24T08:23:45;4.40;;;2.92;;
59434;SDS011;45241;49.768;8.636;2023-08-24T08:26:10;5.32;;;2.40;;
59434;SDS011;45241;49.768;8.636;2023-08-24T08:28:38;3.50;;;2.17;;
59434;SDS011;45241;49.768;8.636;2023-08-24T08:33:06;4.45;;;2.30;;
59434;SDS011;45241;49.768;8.636;2023-08-24T08:35:31;3.55;;;2.50;;
59434;SDS011;45241;49.768;8.636;2023-08-24T08:37:56;3.55;;;2.40;;
59434;SDS011;45241;49.768;8.636;2023-08-24T08:40:23;3.42;;;2.70;;
59434;SDS011;45241;49.768;8.636;2023-08-24T08:42:57;5.80;;;2.35;;
59434;SDS011;45241;49.768;8.636;2023-08-24T08:45:26;6.22;;;2.85;;
59434;SDS011;45241;49.768;8.636;2023-08-24T08:48:00;2.83;;;2.30;;
59434;SDS011;45241;49.768;8.636;2023-08-24T08:50:26;4.88;;;2.30;;
59434;SDS011;45241;49.768;8.636;2023-08-24T08:52:52;2.75;;;2.28;;
59434;SDS011;45241;49.768;8.636;2023-08-24T08:55:18;3.47;;;2.30;;
59434;SDS011;45241;49.768;8.636;2023-08-24T08:57:44;4.38;;;2.30;;
59434;SDS011;45241;49.768;8.636;2023-08-24T09:00:13;4.13;;;2.30;;
59434;SDS011;45241;49.768;8.636;2023-08-24T09:02:42;5.70;;;2.78;;
59434;SDS011;45241;49.768;8.636;2023-08-24T09:05:10;4.70;;;1.90;;
59434;SDS011;45241;49.768;8.636;2023-08-24T09:07:36;2.67;;;2.17;;
59434;SDS011;45241;49.768;8.636;2023-08-24T09:10:05;2.67;;;2.20;;
59434;SDS011;45241;49.768;8.636;2023-08-24T09:12:32;5.07;;;2.25;;
59434;SDS011;45241;49.768;8.636;2023-08-24T09:15:03;3.58;;;2.13;;
59434;SDS011;45241;49.768;8.636;2023-08-24T09:17:31;3.72;;;2.47;;
59434;SDS011;45241;49.768;8.636;2023-08-24T09:20:57;4.13;;;2.57;;
59434;SDS011;45241;49.768;8.636;2023-08-24T09:23:22;3.75;;;2.35;;
59434;SDS011;45241;49.768;8.636;2023-08-24T09:25:48;3.78;;;2.42;;
59434;SDS011;45241;49.768;8.636;2023-08-24T09:28:14;5.80;;;2.45;;
59434;SDS011;45241;49.768;8.636;2023-08-24T09:30:49;5.60;;;2.90;;
59434;SDS011;45241;49.768;8.636;2023-08-24T09:33:19;4.72;;;2.50;;
59434;SDS011;45241;49.768;8.636;2023-08-24T09:35:44;4.30;;;2.28;;
59434;SDS011;45241;49.768;8.636;2023-08-24T09:40:45;3.03;;;2.40;;
59434;SDS011;45241;49.768;8.636;2023-08-24T09:43:14;2.60;;;2.30;;
59434;SDS011;45241;49.768;8.636;2023-08-24T09:45:52;3.05;;;2.47;;
59434;SDS011;45241;49.768;8.636;2023-08-24T09:48:18;3.05;;;2.20;;
59434;SDS011;45241;49.768;8.636;2023-08-24T09:50:45;3.53;;;2.20;;
59434;SDS011;45241;49.768;8.636;2023-08-24T09:53:16;6.45;;;2.42;;
59434;SDS011;45241;49.768;8.636;2023-08-24T09:58:21;3.25;;;2.30;;
59434;SDS011;45241;49.768;8.636;2023-08-24T10:00:47;3.05;;;2.10;;
59434;SDS011;45241;49.768;8.636;2023-08-24T10:03:15;4.22;;;2.30;;
59434;SDS011;45241;49.768;8.636;2023-08-24T10:05:45;2.83;;;2.03;;
59434;SDS011;45241;49.768;8.636;2023-08-24T10:08:12;4.88;;;2.30;;
59434;SDS011;45241;49.768;8.636;2023-08-24T10:10:39;2.70;;;2.10;;
59434;SDS011;45241;49.768;8.636;2023-08-24T10:13:08;3.40;;;2.60;;
59434;SDS011;45241;49.768;8.636;2023-08-24T10:15:43;2.53;;;2.33;;
59434;SDS011;45241;49.768;8.636;2023-08-24T10:18:11;2.90;;;2.23;;
59434;SDS011;45241;49.768;8.636;2023-08-24T10:20:38;3.00;;;2.50;;
59434;SDS011;45241;49.768;8.636;2023-08-24T10:23:04;3.17;;;2.47;;
59434;SDS011;45241;49.768;8.636;2023-08-24T10:25:30;4.53;;;2.50;;
59434;SDS011;45241;49.768;8.636;2023-08-24T10:27:55;3.78;;;2.40;;
59434;SDS011;45241;49.768;8.636;2023-08-24T10:30:23;4.80;;;2.60;;
59434;SDS011;45241;49.768;8.636;2023-08-24T10:32:48;2.80;;;2.17;;
59434;SDS011;45241;49.768;8.636;2023-08-24T10:35:18;3.33;;;2.13;;
59434;SDS011;45241;49.768;8.636;2023-08-24T10:37:44;8.18;;;3.10;;
59434;SDS011;45241;49.768;8.636;2023-08-24T10:40:12;5.32;;;2.67;;
59434;SDS011;45241;49.768;8.636;2023-08-24T10:42:44;3.03;;;2.30;;
59434;SDS011;45241;49.768;8.636;2023-08-24T10:45:11;3.63;;;2.58;;
59434;SDS011;45241;49.768;8.636;2023-08-24T10:47:45;2.90;;;2.60;;
59434;SDS011;45241;49.768;8.636;2023-08-24T10:50:11;4.57;;;2.42;;
59434;SDS011;45241;49.768;8.636;2023-08-24T10:52:37;5.40;;;2.55;;
59434;SDS011;45241;49.768;8.636;2023-08-24T10:55:04;4.63;;;2.92;;
59434;SDS011;45241;49.768;8.636;2023-08-24T10:57:45;5.38;;;2.60;;
59434;SDS011;45241;49.768;8.636;2023-08-24T11:00:21;4.38;;;2.53;;
59434;SDS011;45241;49.768;8.636;2023-08-24T11:02:48;4.13;;;2.80;;
59434;SDS011;45241;49.768;8.636;2023-08-24T11:08:14;5.60;;;2.38;;
59434;SDS011;45241;49.768;8.636;2023-08-24T11:20:40;3.43;;;2.67;;
59434;SDS011;45241;49.768;8.636;2023-08-24T11:23:09;3.97;;;2.47;;
59434;SDS011;45241;49.768;8.636;2023-08-24T11:25:35;3.92;;;2.83;;
59434;SDS011;45241;49.768;8.636;2023-08-24T11:30:08;3.45;;;2.97;;
59434;SDS011;45241;49.768;8.636;2023-08-24T11:32:33;4.45;;;2.67;;
59434;SDS011;45241;49.768;8.636;2023-08-24T11:34:59;2.90;;;2.40;;
59434;SDS011;45241;49.768;8.636;2023-08-24T11:37:25;7.60;;;2.65;;
59434;SDS011;45241;49.768;8.636;2023-08-24T11:39:50;3.75;;;2.30;;
59434;SDS011;45241;49.768;8.636;2023-08-24T11:42:16;4.10;;;2.20;;
59434;SDS011;45241;49.768;8.636;2023-08-24T11:47:16;4.68;;;2.60;;
59434;SDS011;45241;49.768;8.636;2023-08-24T11:49:45;4.50;;;2.58;;
59434;SDS011;45241;49.768;8.636;2023-08-24T11:52:11;4.18;;;2.40;;
59434;SDS011;45241;49.768;8.636;2023-08-24T11:54:36;2.50;;;2.30;;
59434;SDS011;45241;49.768;8.636;2023-08-24T11:57:07;3.20;;;2.53;;
59434;SDS011;45241;49.768;8.636;2023-08-24T11:59:33;4.22;;;2.58;;
59434;SDS011;45241;49.768;8.636;2023-08-24T12:01:59;2.97;;;2.30;;
59434;SDS011;45241;49.768;8.636;2023-08-24T12:04:25;2.30;;;2.03;;
59434;SDS011;45241;49.768;8.636;2023-08-24T12:06:50;3.85;;;2.25;;
59434;SDS011;45241;49.768;8.636;2023-08-24T12:09:15;2.85;;;2.15;;
59434;SDS011;45241;49.768;8.636;2023-08-24T12:11:41;4.03;;;2.50;;
59434;SDS011;45241;49.768;8.636;2023-08-24T12:14:07;6.55;;;2.75;;
59434;SDS011;45241;49.768;8.636;2023-08-24T12:16:34;4.83;;;2.50;;
59434;SDS011;45241;49.768;8.636;2023-08-24T12:19:00;3.78;;;2.58;;
59434;SDS011;45241;49.768;8.636;2023-08-24T12:21:29;2.95;;;2.10;;
59434;SDS011;45241;49.768;8.636;2023-08-24T12:23:55;4.50;;;2.58;;
59434;SDS011;45241;49.768;8.636;2023-08-24T12:26:22;4.90;;;2.20;;
59434;SDS011;45241;49.768;8.636;2023-08-24T12:28:51;2.45;;;2.10;;
59434;SDS011;45241;49.768;8.636;2023-08-24T12:31:17;4.18;;;2.08;;
59434;SDS011;45241;49.768;8.636;2023-08-24T12:33:43;3.47;;;2.17;;
59434;SDS011;45241;49.768;8.636;2023-08-24T12:36:10;4.57;;;2.20;;
59434;SDS011;45241;49.768;8.636;2023-08-24T12:38:35;2.83;;;1.75;;
59434;SDS011;45241;49.768;8.636;2023-08-24T12:42:43;3.47;;;2.30;;
59434;SDS011;45241;49.768;8.636;2023-08-24T12:45:08;3.10;;;2.20;;
59434;SDS011;45241;49.768;8.636;2023-08-24T12:47:34;3.08;;;1.98;;
59434;SDS011;45241;49.768;8.636;2023-08-24T12:50:02;2.25;;;1.77;;
59434;SDS011;45241;49.768;8.636;2023-08-24T12:52:28;2.88;;;2.03;;
59434;SDS011;45241;49.768;8.636;2023-08-24T12:54:54;2.75;;;2.05;;
59434;SDS011;45241;49.768;8.636;2023-08-24T12:57:19;2.80;;;1.85;;
59434;SDS011;45241;49.768;8.636;2023-08-24T12:59:44;13.33;;;2.70;;
59434;SDS011;45241;49.768;8.636;2023-08-24T13:02:11;3.85;;;2.20;;
59434;SDS011;45241;49.768;8.636;2023-08-24T13:04:36;2.43;;;2.10;;
59434;SDS011;45241;49.768;8.636;2023-08-24T13:07:01;3.97;;;2.22;;
59434;SDS011;45241;49.768;8.636;2023-08-24T13:09:27;4.45;;;2.00;;
59434;SDS011;45241;49.768;8.636;2023-08-24T13:11:52;2.97;;;2.10;;
59434;SDS011;45241;49.768;8.636;2023-08-24T13:14:18;3.55;;;2.03;;
59434;SDS011;45241;49.768;8.636;2023-08-24T13:16:43;3.85;;;2.42;;
59434;SDS011;45241;49.768;8.636;2023-08-24T13:19:08;2.38;;;2.10;;
59434;SDS011;45241;49.768;8.636;2023-08-24T13:21:34;5.95;;;2.33;;
59434;SDS011;45241;49.768;8.636;2023-08-24T13:23:59;2.58;;;2.17;;
59434;SDS011;45241;49.768;8.636;2023-08-24T13:26:24;3.38;;;2.33;;
59434;SDS011;45241;49.768;8.636;2023-08-24T13:28:50;3.42;;;2.22;;
59434;SDS011;45241;49.768;8.636;2023-08-24T13:31:16;2.92;;;1.90;;
59434;SDS011;45241;49.768;8.636;2023-08-24T13:33:42;5.07;;;2.38;;
59434;SDS011;45241;49.768;8.636;2023-08-24T13:36:07;3.97;;;2.38;;
59434;SDS011;45241;49.768;8.636;2023-08-24T13:38:33;2.50;;;2.30;;
59434;SDS011;45241;49.768;8.636;2023-08-24T13:40:58;3.25;;;2.47;;
59434;SDS011;45241;49.768;8.636;2023-08-24T13:43:23;3.20;;;2.35;;
59434;SDS011;45241;49.768;8.636;2023-08-24T13:45:48;4.82;;;2.78;;
59434;SDS011;45241;49.768;8.636;2023-08-24T13:48:14;5.65;;;2.72;;
59434;SDS011;45241;49.768;8.636;2023-08-24T13:50:41;7.20;;;2.88;;
59434;SDS011;45241;49.768;8.636;2023-08-24T13:53:06;3.03;;;2.72;;
59434;SDS011;45241;49.768;8.636;2023-08-24T13:55:32;6.38;;;2.88;;
59434;SDS011;45241;49.768;8.636;2023-08-24T13:57:57;4.13;;;3.15;;
59434;SDS011;45241;49.768;8.636;2023-08-24T14:00:23;4.22;;;3.00;;
59434;SDS011;45241;49.768;8.636;2023-08-24T14:02:48;4.65;;;2.90;;
59434;SDS011;45241;49.768;8.636;2023-08-24T14:05:14;6.38;;;3.03;;
59434;SDS011;45241;49.768;8.636;2023-08-24T14:07:39;4.03;;;2.90;;
59434;SDS011;45241;49.768;8.636;2023-08-24T14:10:05;5.40;;;3.00;;
59434;SDS011;45241;49.768;8.636;2023-08-24T14:12:32;4.55;;;2.65;;
59434;SDS011;45241;49.768;8.636;2023-08-24T14:14:58;4.93;;;3.05;;
59434;SDS011;45241;49.768;8.636;2023-08-24T14:17:23;3.60;;;2.75;;
59434;SDS011;45241;49.768;8.636;2023-08-24T14:19:48;3.70;;;2.70;;
59434;SDS011;45241;49.768;8.636;2023-08-24T14:22:48;3.38;;;2.92;;
59434;SDS011;45241;49.768;8.636;2023-08-24T14:25:14;3.15;;;2.60;;
59434;SDS011;45241;49.768;8.636;2023-08-24T14:27:39;3.00;;;2.70;;
59434;SDS011;45241;49.768;8.636;2023-08-24T14:30:06;6.32;;;2.42;;
59434;SDS011;45241;49.768;8.636;2023-08-24T14:32:32;7.18;;;2.60;;
59434;SDS011;45241;49.768;8.636;2023-08-24T14:34:58;4.13;;;2.72;;
59434;SDS011;45241;49.768;8.636;2023-08-24T14:37:23;6.05;;;2.85;;
59434;SDS011;45241;49.768;8.636;2023-08-24T14:39:48;7.45;;;3.05;;
59434;SDS011;45241;49.768;8.636;2023-08-24T14:42:14;4.13;;;2.70;;
59434;SDS011;45241;49.768;8.636;2023-08-24T14:44:40;3.75;;;2.90;;
59434;SDS011;45241;49.768;8.636;2023-08-24T14:47:05;2.97;;;2.53;;
59434;SDS011;45241;49.768;8.636;2023-08-24T14:49:30;4.57;;;2.90;;
59434;SDS011;45241;49.768;8.636;2023-08-24T14:51:56;6.40;;;3.00;;
59434;SDS011;45241;49.768;8.636;2023-08-24T14:54:21;4.13;;;2.72;;
59434;SDS011;45241;49.768;8.636;2023-08-24T14:56:46;5.30;;;2.85;;
59434;SDS011;45241;49.768;8.636;2023-08-24T14:59:11;3.40;;;3.10;;
59434;SDS011;45241;49.768;8.636;2023-08-24T15:01:37;5.18;;;2.88;;
59434;SDS011;45241;49.768;8.636;2023-08-24T15:04:02;7.07;;;3.10;;
59434;SDS011;45241;49.768;8.636;2023-08-24T15:06:27;5.85;;;3.20;;
59434;SDS011;45241;49.768;8.636;2023-08-24T15:08:53;9.88;;;3.45;;
59434;SDS011;45241;49.768;8.636;2023-08-24T15:11:18;5.55;;;3.40;;
59434;SDS011;45241;49.768;8.636;2023-08-24T15:13:43;5.82;;;3.72;;
59434;SDS011;45241;49.768;8.636;2023-08-24T15:16:09;5.78;;;3.97;;
59434;SDS011;45241;49.768;8.636;2023-08-24T15:18:35;10.73;;;4.22;;
59434;SDS011;45241;49.768;8.636;2023-08-24T15:21:00;6.20;;;3.83;;
59434;SDS011;45241;49.768;8.636;2023-08-24T15:23:26;6.20;;;3.85;;
59434;SDS011;45241;49.768;8.636;2023-08-24T15:25:57;9.90;;;4.20;;
59434;SDS011;45241;49.768;8.636;2023-08-24T15:28:23;5.18;;;3.83;;
59434;SDS011;45241;49.768;8.636;2023-08-24T15:30:49;5.32;;;3.85;;
59434;SDS011;45241;49.768;8.636;2023-08-24T15:33:18;6.55;;;4.13;;
59434;SDS011;45241;49.768;8.636;2023-08-24T15:35:44;6.05;;;3.83;;
59434;SDS011;45241;49.768;8.636;2023-08-24T15:38:10;5.63;;;4.30;;
59434;SDS011;45241;49.768;8.636;2023-08-24T15:40:36;5.43;;;3.88;;
59434;SDS011;45241;49.768;8.636;2023-08-24T15:43:02;4.60;;;4.07;;
59434;SDS011;45241;49.768;8.636;2023-08-24T15:45:28;4.18;;;3.67;;
59434;SDS011;45241;49.768;8.636;2023-08-24T15:47:57;6.45;;;4.07;;
59434;SDS011;45241;49.768;8.636;2023-08-24T15:52:49;7.23;;;4.23;;
59434;SDS011;45241;49.768;8.636;2023-08-24T15:55:14;4.35;;;3.90;;
59434;SDS011;45241;49.768;8.636;2023-08-24T15:57:40;5.03;;;3.90;;
59434;SDS011;45241;49.768;8.636;2023-08-24T16:02:04;6.32;;;3.58;;
59434;SDS011;45241;49.768;8.636;2023-08-24T16:04:29;8.15;;;3.97;;
59434;SDS011;45241;49.768;8.636;2023-08-24T16:06:55;6.00;;;4.15;;
59434;SDS011;45241;49.768;8.636;2023-08-24T16:09:20;5.65;;;3.70;;
59434;SDS011;45241;49.768;8.636;2023-08-24T16:11:45;6.03;;;3.95;;
59434;SDS011;45241;49.768;8.636;2023-08-24T16:14:10;5.65;;;4.05;;
59434;SDS011;45241;49.768;8.636;2023-08-24T16:16:36;7.47;;;4.15;;
59434;SDS011;45241;49.768;8.636;2023-08-24T16:19:02;9.05;;;4.20;;
59434;SDS011;45241;49.768;8.636;2023-08-24T16:21:27;4.72;;;3.92;;
59434;SDS011;45241;49.768;8.636;2023-08-24T16:23:54;6.05;;;4.47;;
59434;SDS011;45241;49.768;8.636;2023-08-24T16:26:20;6.43;;;4.13;;
59434;SDS011;45241;49.768;8.636;2023-08-24T16:28:46;6.78;;;3.60;;
59434;SDS011;45241;49.768;8.636;2023-08-24T16:31:11;4.93;;;3.95;;
59434;SDS011;45241;49.768;8.636;2023-08-24T16:33:37;7.00;;;3.88;;
59434;SDS011;45241;49.768;8.636;2023-08-24T16:36:02;5.88;;;3.85;;
59434;SDS011;45241;49.768;8.636;2023-08-24T16:38:28;5.80;;;3.60;;
59434;SDS011;45241;49.768;8.636;2023-08-24T16:40:53;4.20;;;3.83;;
59434;SDS011;45241;49.768;8.636;2023-08-24T16:43:19;5.13;;;3.92;;
59434;SDS011;45241;49.768;8.636;2023-08-24T16:45:44;6.28;;;3.88;;
59434;SDS011;45241;49.768;8.636;2023-08-24T16:48:09;6.78;;;4.20;;
59434;SDS011;45241;49.768;8.636;2023-08-24T16:50:34;5.68;;;4.07;;
59434;SDS011;45241;49.768;8.636;2023-08-24T16:53:00;5.22;;;3.88;;
59434;SDS011;45241;49.768;8.636;2023-08-24T16:55:25;5.82;;;4.07;;
59434;SDS011;45241;49.768;8.636;2023-08-24T18:22:50;9.65;;;6.22;;
59434;SDS011;45241;49.768;8.636;2023-08-24T18:25:15;7.18;;;5.85;;
59434;SDS011;45241;49.768;8.636;2023-08-24T18:28:51;7.47;;;5.55;;
59434;SDS011;45241;49.768;8.636;2023-08-24T18:31:16;8.05;;;5.50;;
59434;SDS011;45241;49.768;8.636;2023-08-24T18:33:42;9.23;;;5.72;;
59434;SDS011;45241;49.768;8.636;2023-08-24T18:36:07;9.85;;;6.55;;
59434;SDS011;45241;49.768;8.636;2023-08-24T18:38:32;6.82;;;5.55;;
59434;SDS011;45241;49.768;8.636;2023-08-24T18:40:58;11.70;;;6.68;;
59434;SDS011;45241;49.768;8.636;2023-08-24T18:43:24;7.43;;;6.40;;
59434;SDS011;45241;49.768;8.636;2023-08-24T18:45:57;7.85;;;5.63;;
59434;SDS011;45241;49.768;8.636;2023-08-24T18:48:23;8.55;;;6.25;;
59434;SDS011;45241;49.768;8.636;2023-08-24T18:52:15;9.57;;;6.65;;
59434;SDS011;45241;49.768;8.636;2023-08-24T18:54:40;10.38;;;6.32;;
59434;SDS011;45241;49.768;8.636;2023-08-24T18:57:06;10.90;;;6.40;;
59434;SDS011;45241;49.768;8.636;2023-08-24T18:59:31;11.30;;;6.35;;
59434;SDS011;45241;49.768;8.636;2023-08-24T19:01:56;10.02;;;6.15;;
59434;SDS011;45241;49.768;8.636;2023-08-24T19:04:22;8.52;;;6.43;;
59434;SDS011;45241;49.768;8.636;2023-08-24T19:06:47;9.63;;;6.60;;
59434;SDS011;45241;49.768;8.636;2023-08-24T19:09:12;8.80;;;6.72;;
59434;SDS011;45241;49.768;8.636;2023-08-24T19:11:38;8.15;;;6.32;;
59434;SDS011;45241;49.768;8.636;2023-08-24T19:14:04;10.52;;;6.57;;
59434;SDS011;45241;49.768;8.636;2023-08-24T19:18:59;13.00;;;7.03;;
59434;SDS011;45241;49.768;8.636;2023-08-24T19:21:24;9.05;;;7.10;;
59434;SDS011;45241;49.768;8.636;2023-08-24T19:23:51;11.82;;;7.00;;
59434;SDS011;45241;49.768;8.636;2023-08-24T19:26:17;8.10;;;6.50;;
59434;SDS011;45241;49.768;8.636;2023-08-24T19:28:42;8.13;;;6.78;;
59434;SDS011;45241;49.768;8.636;2023-08-24T19:31:10;9.18;;;7.60;;
59434;SDS011;45241;49.768;8.636;2023-08-24T19:33:35;11.18;;;7.00;;
59434;SDS011;45241;49.768;8.636;2023-08-24T19:36:01;9.63;;;7.10;;
59434;SDS011;45241;49.768;8.636;2023-08-24T19:38:26;9.60;;;6.88;;
59434;SDS011;45241;49.768;8.636;2023-08-24T19:40:51;12.50;;;7.30;;
59434;SDS011;45241;49.768;8.636;2023-08-24T19:43:17;7.10;;;6.40;;
59434;SDS011;45241;49.768;8.636;2023-08-24T19:45:42;9.02;;;7.90;;
59434;SDS011;45241;49.768;8.636;2023-08-24T19:48:08;10.32;;;7.45;;
59434;SDS011;45241;49.768;8.636;2023-08-24T19:50:35;10.80;;;6.95;;
59434;SDS011;45241;49.768;8.636;2023-08-24T19:53:00;7.82;;;6.32;;
59434;SDS011;45241;49.768;8.636;2023-08-24T19:55:25;8.95;;;6.15;;
59434;SDS011;45241;49.768;8.636;2023-08-24T19:57:51;8.05;;;6.90;;
59434;SDS011;45241;49.768;8.636;2023-08-24T20:00:17;9.45;;;6.90;;
59434;SDS011;45241;49.768;8.636;2023-08-24T20:02:45;9.20;;;7.65;;
59434;SDS011;45241;49.768;8.636;2023-08-24T20:05:10;10.80;;;7.65;;
59434;SDS011;45241;49.768;8.636;2023-08-24T20:07:36;14.35;;;8.57;;
59434;SDS011;45241;49.768;8.636;2023-08-24T20:10:02;10.43;;;7.50;;
59434;SDS011;45241;49.768;8.636;2023-08-24T20:12:29;9.20;;;8.27;;
59434;SDS011;45241;49.768;8.636;2023-08-24T20:14:54;9.75;;;7.25;;
59434;SDS011;45241;49.768;8.636;2023-08-24T20:17:20;8.82;;;7.80;;
59434;SDS011;45241;49.768;8.636;2023-08-24T20:19:45;11.90;;;7.97;;
59434;SDS011;45241;49.768;8.636;2023-08-24T20:22:14;10.63;;;8.38;;
59434;SDS011;45241;49.768;8.636;2023-08-24T20:24:39;10.23;;;9.10;;
59434;SDS011;45241;49.768;8.636;2023-08-24T20:27:05;9.07;;;7.45;;
59434;SDS011;45241;49.768;8.636;2023-08-24T20:29:30;11.32;;;8.95;;
59434;SDS011;45241;49.768;8.636;2023-08-24T20:31:56;11.88;;;8.77;;
59434;SDS011;45241;49.768;8.636;2023-08-24T20:34:21;11.77;;;8.82;;
59434;SDS011;45241;49.768;8.636;2023-08-24T20:36:47;14.82;;;8.77;;
59434;SDS011;45241;49.768;8.636;2023-08-24T20:39:12;14.57;;;9.75;;
59434;SDS011;45241;49.768;8.636;2023-08-24T20:41:38;11.90;;;8.57;;
59434;SDS011;45241;49.768;8.636;2023-08-24T20:45:38;14.02;;;9.57;;
59434;SDS011;45241;49.768;8.636;2023-08-24T20:48:03;13.73;;;10.43;;
59434;SDS011;45241;49.768;8.636;2023-08-24T20:50:29;11.98;;;9.88;;
59434;SDS011;45241;49.768;8.636;2023-08-24T20:52:55;11.27;;;9.57;;
59434;SDS011;45241;49.768;8.636;2023-08-24T20:57:21;15.90;;;11.82;;
59434;SDS011;45241;49.768;8.636;2023-08-24T20:59:46;12.27;;;10.77;;
59434;SDS011;45241;49.768;8.636;2023-08-24T21:02:12;12.48;;;10.25;;
59434;SDS011;45241;49.768;8.636;2023-08-24T21:04:37;15.15;;;10.32;;
59434;SDS011;45241;49.768;8.636;2023-08-24T21:07:03;15.35;;;10.63;;
59434;SDS011;45241;49.768;8.636;2023-08-24T21:09:29;16.50;;;11.82;;
59434;SDS011;45241;49.768;8.636;2023-08-24T21:11:54;14.73;;;10.70;;
59434;SDS011;45241;49.768;8.636;2023-08-24T21:14:20;12.00;;;10.77;;
59434;SDS011;45241;49.768;8.636;2023-08-24T21:16:45;13.00;;;10.02;;
59434;SDS011;45241;49.768;8.636;2023-08-24T21:19:11;13.93;;;10.90;;
59434;SDS011;45241;49.768;8.636;2023-08-24T21:21:36;14.65;;;11.18;;
59434;SDS011;45241;49.768;8.636;2023-08-24T21:24:02;10.55;;;9.45;;
59434;SDS011;45241;49.768;8.636;2023-08-24T21:26:28;12.18;;;10.02;;
59434;SDS011;45241;49.768;8.636;2023-08-24T21:28:55;13.18;;;9.90;;
59434;SDS011;45241;49.768;8.636;2023-08-24T21:31:20;13.95;;;10.77;;
59434;SDS011;45241;49.768;8.636;2023-08-24T21:33:46;13.90;;;10.98;;
59434;SDS011;45241;49.768;8.636;2023-08-24T21:36:11;12.38;;;9.63;;
59434;SDS011;45241;49.768;8.636;2023-08-24T21:38:38;13.77;;;10.95;;
59434;SDS011;45241;49.768;8.636;2023-08-24T21:41:07;11.85;;;10.65;;
59434;SDS011;45241;49.768;8.636;2023-08-24T21:43:33;13.95;;;11.15;;
59434;SDS011;45241;49.768;8.636;2023-08-24T21:46:00;17.52;;;11.13;;
59434;SDS011;45241;49.768;8.636;2023-08-24T21:48:26;12.55;;;10.43;;
59434;SDS011;45241;49.768;8.636;2023-08-24T21:50:51;14.65;;;10.88;;
59434;SDS011;45241;49.768;8.636;2023-08-24T21:53:17;14.05;;;11.50;;
59434;SDS011;45241;49.768;8.636;2023-08-24T21:55:42;12.80;;;11.13;;
59434;SDS011;45241;49.768;8.636;2023-08-24T21:58:09;12.07;;;10.85;;
59434;SDS011;45241;49.768;8.636;2023-08-24T22:00:37;11.20;;;10.07;;
59434;SDS011;45241;49.768;8.636;2023-08-24T22:03:04;14.00;;;11.48;;
59434;SDS011;45241;49.768;8.636;2023-08-24T22:05:30;12.77;;;9.75;;
59434;SDS011;45241;49.768;8.636;2023-08-24T22:07:55;14.35;;;10.57;;
59434;SDS011;45241;49.768;8.636;2023-08-24T22:10:20;16.10;;;12.40;;
59434;SDS011;45241;49.768;8.636;2023-08-24T22:12:45;15.70;;;12.18;;
59434;SDS011;45241;49.768;8.636;2023-08-24T22:15:11;15.75;;;12.50;;
59434;SDS011;45241;49.768;8.636;2023-08-24T22:17:36;13.85;;;10.88;;
59434;SDS011;45241;49.768;8.636;2023-08-24T22:20:01;13.07;;;11.43;;
59434;SDS011;45241;49.768;8.636;2023-08-24T22:22:28;15.00;;;11.50;;
59434;SDS011;45241;49.768;8.636;2023-08-24T22:24:53;15.40;;;10.98;;
59434;SDS011;45241;49.768;8.636;2023-08-24T22:27:19;14.05;;;11.50;;
59434;SDS011;45241;49.768;8.636;2023-08-24T22:29:45;14.40;;;11.77;;
59434;SDS011;45241;49.768;8.636;2023-08-24T22:32:10;12.25;;;10.38;;
59434;SDS011;45241;49.768;8.636;2023-08-24T22:34:36;14.25;;;11.23;;
59434;SDS011;45241;49.768;8.636;2023-08-24T22:37:02;12.93;;;10.60;;
59434;SDS011;45241;49.768;8.636;2023-08-24T22:39:27;13.80;;;11.00;;
59434;SDS011;45241;49.768;8.636;2023-08-24T22:41:53;14.60;;;9.73;;
59434;SDS011;45241;49.768;8.636;2023-08-24T22:44:18;13.05;;;9.60;;
59434;SDS011;45241;49.768;8.636;2023-08-24T22:46:44;15.07;;;12.73;;
59434;SDS011;45241;49.768;8.636;2023-08-24T22:49:09;14.75;;;11.95;;
59434;SDS011;45241;49.768;8.636;2023-08-24T22:51:34;12.38;;;11.07;;
59434;SDS011;45241;49.768;8.636;2023-08-24T22:54:01;13.50;;;11.75;;
59434;SDS011;45241;49.768;8.636;2023-08-24T22:56:28;13.10;;;10.60;;
59434;SDS011;45241;49.768;8.636;2023-08-24T22:58:53;11.90;;;10.23;;